sensor_id;sensor_type;location;lat;lon;timestamp;P1;durP1;ratioP1;P2;durP2;ratioP2
66741;SDS011;53654;54.152;19.432;2023-04-23T00:00:56;3.40;;;3.10;;
66741;SDS011;53654;54.152;19.432;2023-04-23T00:03:35;3.80;;;3.10;;
66741;SDS011;53654;54.152;19.432;2023-04-23T00:06:06;4.30;;;3.10;;
66741;SDS011;53654;54.152;19.432;2023-04-23T00:08:38;3.80;;;3.30;;
66741;SDS011;53654;54.152;19.432;2023-04-23T00:11:08;3.60;;;3.30;;
66741;SDS011;53654;54.152;19.432;2023-04-23T00:13:36;4.40;;;3.20;;
66741;SDS011;53654;54.152;19.432;2023-04-23T00:16:05;3.40;;;2.90;;
66741;SDS011;53654;54.152;19.432;2023-04-23T00:18:34;4.20;;;3.10;;
66741;SDS011;53654;54.152;19.432;2023-04-23T00:21:03;4.40;;;3.40;;
66741;SDS011;53654;54.152;19.432;2023-04-23T00:23:31;4.40;;;3.40;;
66741;SDS011;53654;54.152;19.432;2023-04-23T00:25:59;3.50;;;3.20;;
66741;SDS011;53654;54.152;19.432;2023-04-23T00:28:27;3.50;;;3.20;;
66741;SDS011;53654;54.152;19.432;2023-04-23T00:30:55;3.80;;;3.50;;
66741;SDS011;53654;54.152;19.432;2023-04-23T00:33:23;5.50;;;3.10;;
66741;SDS011;53654;54.152;19.432;2023-04-23T00:35:52;3.80;;;3.00;;
66741;SDS011;53654;54.152;19.432;2023-04-23T00:38:20;3.40;;;2.90;;
66741;SDS011;53654;54.152;19.432;2023-04-23T00:40:48;3.70;;;2.90;;
66741;SDS011;53654;54.152;19.432;2023-04-23T00:43:16;4.30;;;3.20;;
66741;SDS011;53654;54.152;19.432;2023-04-23T00:45:46;4.40;;;3.10;;
66741;SDS011;53654;54.152;19.432;2023-04-23T00:48:15;3.20;;;2.90;;
66741;SDS011;53654;54.152;19.432;2023-04-23T00:50:44;3.40;;;3.00;;
66741;SDS011;53654;54.152;19.432;2023-04-23T00:53:13;4.40;;;3.00;;
66741;SDS011;53654;54.152;19.432;2023-04-23T00:55:41;4.10;;;3.30;;
66741;SDS011;53654;54.152;19.432;2023-04-23T00:58:09;3.80;;;3.00;;
66741;SDS011;53654;54.152;19.432;2023-04-23T01:00:38;3.60;;;3.00;;
66741;SDS011;53654;54.152;19.432;2023-04-23T01:03:14;3.60;;;3.20;;
66741;SDS011;53654;54.152;19.432;2023-04-23T01:05:45;4.10;;;3.00;;
66741;SDS011;53654;54.152;19.432;2023-04-23T01:08:15;4.80;;;3.20;;
66741;SDS011;53654;54.152;19.432;2023-04-23T01:10:44;4.10;;;3.10;;
66741;SDS011;53654;54.152;19.432;2023-04-23T01:13:14;5.40;;;3.30;;
66741;SDS011;53654;54.152;19.432;2023-04-23T01:15:43;4.60;;;2.90;;
66741;SDS011;53654;54.152;19.432;2023-04-23T01:18:12;3.50;;;3.20;;
66741;SDS011;53654;54.152;19.432;2023-04-23T01:20:41;3.50;;;3.00;;
66741;SDS011;53654;54.152;19.432;2023-04-23T01:23:10;5.60;;;3.50;;
66741;SDS011;53654;54.152;19.432;2023-04-23T01:25:38;4.70;;;3.10;;
66741;SDS011;53654;54.152;19.432;2023-04-23T01:28:07;3.70;;;3.00;;
66741;SDS011;53654;54.152;19.432;2023-04-23T01:30:35;3.30;;;3.00;;
66741;SDS011;53654;54.152;19.432;2023-04-23T01:36:36;3.70;;;3.20;;
66741;SDS011;53654;54.152;19.432;2023-04-23T01:39:04;3.80;;;3.10;;
66741;SDS011;53654;54.152;19.432;2023-04-23T01:41:32;3.80;;;3.30;;
66741;SDS011;53654;54.152;19.432;2023-04-23T01:44:02;4.40;;;3.80;;
66741;SDS011;53654;54.152;19.432;2023-04-23T01:46:30;4.30;;;3.80;;
66741;SDS011;53654;54.152;19.432;2023-04-23T01:48:58;4.20;;;3.60;;
66741;SDS011;53654;54.152;19.432;2023-04-23T01:51:28;4.70;;;3.80;;
66741;SDS011;53654;54.152;19.432;2023-04-23T01:53:56;4.20;;;3.50;;
66741;SDS011;53654;54.152;19.432;2023-04-23T01:56:25;4.00;;;3.40;;
66741;SDS011;53654;54.152;19.432;2023-04-23T01:58:54;3.70;;;3.30;;
66741;SDS011;53654;54.152;19.432;2023-04-23T02:01:23;3.80;;;3.40;;
66741;SDS011;53654;54.152;19.432;2023-04-23T02:03:51;4.90;;;3.70;;
66741;SDS011;53654;54.152;19.432;2023-04-23T02:06:20;4.30;;;3.50;;
66741;SDS011;53654;54.152;19.432;2023-04-23T02:08:48;3.70;;;3.40;;
66741;SDS011;53654;54.152;19.432;2023-04-23T02:11:16;5.00;;;3.30;;
66741;SDS011;53654;54.152;19.432;2023-04-23T02:13:44;4.00;;;3.40;;
66741;SDS011;53654;54.152;19.432;2023-04-23T02:16:12;4.30;;;3.50;;
66741;SDS011;53654;54.152;19.432;2023-04-23T02:18:41;4.90;;;3.80;;
66741;SDS011;53654;54.152;19.432;2023-04-23T02:21:09;4.30;;;3.90;;
66741;SDS011;53654;54.152;19.432;2023-04-23T02:23:37;5.80;;;4.00;;
66741;SDS011;53654;54.152;19.432;2023-04-23T02:26:06;4.40;;;4.00;;
66741;SDS011;53654;54.152;19.432;2023-04-23T02:28:34;4.40;;;4.00;;
66741;SDS011;53654;54.152;19.432;2023-04-23T02:31:02;4.40;;;4.00;;
66741;SDS011;53654;54.152;19.432;2023-04-23T02:33:30;4.40;;;3.90;;
66741;SDS011;53654;54.152;19.432;2023-04-23T02:35:58;4.00;;;3.60;;
66741;SDS011;53654;54.152;19.432;2023-04-23T02:38:27;6.20;;;4.20;;
66741;SDS011;53654;54.152;19.432;2023-04-23T02:40:56;4.60;;;4.10;;
66741;SDS011;53654;54.152;19.432;2023-04-23T02:43:24;4.70;;;3.90;;
66741;SDS011;53654;54.152;19.432;2023-04-23T02:45:52;5.10;;;4.00;;
66741;SDS011;53654;54.152;19.432;2023-04-23T02:48:20;7.10;;;3.90;;
66741;SDS011;53654;54.152;19.432;2023-04-23T02:50:49;4.90;;;5.30;;
66741;SDS011;53654;54.152;19.432;2023-04-23T02:53:17;5.30;;;4.20;;
66741;SDS011;53654;54.152;19.432;2023-04-23T02:55:45;4.80;;;4.10;;
66741;SDS011;53654;54.152;19.432;2023-04-23T02:58:13;4.10;;;3.70;;
66741;SDS011;53654;54.152;19.432;2023-04-23T03:00:41;5.10;;;3.90;;
66741;SDS011;53654;54.152;19.432;2023-04-23T03:03:10;4.30;;;3.80;;
66741;SDS011;53654;54.152;19.432;2023-04-23T03:05:39;6.00;;;4.20;;
66741;SDS011;53654;54.152;19.432;2023-04-23T03:08:07;4.40;;;4.00;;
66741;SDS011;53654;54.152;19.432;2023-04-23T03:10:35;4.40;;;3.70;;
66741;SDS011;53654;54.152;19.432;2023-04-23T03:13:04;6.20;;;4.30;;
66741;SDS011;53654;54.152;19.432;2023-04-23T03:15:32;4.70;;;4.20;;
66741;SDS011;53654;54.152;19.432;2023-04-23T03:18:00;4.30;;;3.90;;
66741;SDS011;53654;54.152;19.432;2023-04-23T03:20:31;5.80;;;5.20;;
66741;SDS011;53654;54.152;19.432;2023-04-23T03:22:59;4.60;;;4.20;;
66741;SDS011;53654;54.152;19.432;2023-04-23T03:25:28;5.60;;;3.90;;
66741;SDS011;53654;54.152;19.432;2023-04-23T03:27:56;5.40;;;4.60;;
66741;SDS011;53654;54.152;19.432;2023-04-23T03:30:25;4.90;;;4.30;;
66741;SDS011;53654;54.152;19.432;2023-04-23T03:32:54;4.30;;;3.90;;
66741;SDS011;53654;54.152;19.432;2023-04-23T03:35:24;5.20;;;3.90;;
66741;SDS011;53654;54.152;19.432;2023-04-23T03:37:53;5.30;;;4.10;;
66741;SDS011;53654;54.152;19.432;2023-04-23T03:40:22;4.80;;;3.70;;
66741;SDS011;53654;54.152;19.432;2023-04-23T03:42:53;5.00;;;4.20;;
66741;SDS011;53654;54.152;19.432;2023-04-23T03:45:28;6.00;;;4.10;;
66741;SDS011;53654;54.152;19.432;2023-04-23T03:47:58;4.50;;;4.00;;
66741;SDS011;53654;54.152;19.432;2023-04-23T03:50:26;4.60;;;4.10;;
66741;SDS011;53654;54.152;19.432;2023-04-23T03:53:05;6.10;;;4.10;;
66741;SDS011;53654;54.152;19.432;2023-04-23T03:56:06;4.40;;;4.00;;
66741;SDS011;53654;54.152;19.432;2023-04-23T03:58:39;4.30;;;3.90;;
66741;SDS011;53654;54.152;19.432;2023-04-23T04:01:07;4.50;;;4.00;;
66741;SDS011;53654;54.152;19.432;2023-04-23T04:03:35;4.50;;;3.80;;
66741;SDS011;53654;54.152;19.432;2023-04-23T04:06:03;6.20;;;4.00;;
66741;SDS011;53654;54.152;19.432;2023-04-23T04:08:31;4.30;;;3.90;;
66741;SDS011;53654;54.152;19.432;2023-04-23T04:11:00;5.70;;;4.20;;
66741;SDS011;53654;54.152;19.432;2023-04-23T04:13:28;4.40;;;4.00;;
66741;SDS011;53654;54.152;19.432;2023-04-23T04:15:56;5.00;;;4.00;;
66741;SDS011;53654;54.152;19.432;2023-04-23T04:18:24;4.70;;;3.90;;
66741;SDS011;53654;54.152;19.432;2023-04-23T04:20:52;5.70;;;4.30;;
66741;SDS011;53654;54.152;19.432;2023-04-23T04:23:21;5.10;;;4.60;;
66741;SDS011;53654;54.152;19.432;2023-04-23T04:25:49;6.70;;;5.00;;
66741;SDS011;53654;54.152;19.432;2023-04-23T04:28:18;5.30;;;4.00;;
66741;SDS011;53654;54.152;19.432;2023-04-23T04:30:46;5.40;;;4.60;;
66741;SDS011;53654;54.152;19.432;2023-04-23T04:33:16;5.00;;;4.50;;
66741;SDS011;53654;54.152;19.432;2023-04-23T04:35:45;5.30;;;4.60;;
66741;SDS011;53654;54.152;19.432;2023-04-23T04:38:15;4.80;;;4.10;;
66741;SDS011;53654;54.152;19.432;2023-04-23T04:40:43;4.80;;;4.30;;
66741;SDS011;53654;54.152;19.432;2023-04-23T04:43:12;4.70;;;4.30;;
66741;SDS011;53654;54.152;19.432;2023-04-23T04:45:39;4.80;;;4.10;;
66741;SDS011;53654;54.152;19.432;2023-04-23T04:48:07;4.40;;;4.00;;
66741;SDS011;53654;54.152;19.432;2023-04-23T04:50:35;4.30;;;3.80;;
66741;SDS011;53654;54.152;19.432;2023-04-23T04:53:03;5.20;;;4.30;;
66741;SDS011;53654;54.152;19.432;2023-04-23T04:55:31;4.90;;;4.30;;
66741;SDS011;53654;54.152;19.432;2023-04-23T04:57:59;4.80;;;4.30;;
66741;SDS011;53654;54.152;19.432;2023-04-23T05:00:28;5.50;;;4.40;;
66741;SDS011;53654;54.152;19.432;2023-04-23T05:02:57;5.30;;;4.30;;
66741;SDS011;53654;54.152;19.432;2023-04-23T05:05:25;6.30;;;4.40;;
66741;SDS011;53654;54.152;19.432;2023-04-23T05:07:54;5.70;;;4.40;;
66741;SDS011;53654;54.152;19.432;2023-04-23T05:10:22;5.20;;;4.00;;
66741;SDS011;53654;54.152;19.432;2023-04-23T05:12:50;4.30;;;3.90;;
66741;SDS011;53654;54.152;19.432;2023-04-23T05:15:18;6.00;;;3.90;;
66741;SDS011;53654;54.152;19.432;2023-04-23T05:17:46;5.90;;;4.10;;
66741;SDS011;53654;54.152;19.432;2023-04-23T05:20:14;4.20;;;3.80;;
66741;SDS011;53654;54.152;19.432;2023-04-23T05:22:42;4.90;;;4.10;;
66741;SDS011;53654;54.152;19.432;2023-04-23T05:25:10;4.20;;;3.80;;
66741;SDS011;53654;54.152;19.432;2023-04-23T05:27:39;5.00;;;4.10;;
66741;SDS011;53654;54.152;19.432;2023-04-23T05:30:08;4.60;;;4.10;;
66741;SDS011;53654;54.152;19.432;2023-04-23T05:32:37;5.80;;;4.20;;
66741;SDS011;53654;54.152;19.432;2023-04-23T05:35:05;5.10;;;4.00;;
66741;SDS011;53654;54.152;19.432;2023-04-23T05:37:34;4.30;;;3.90;;
66741;SDS011;53654;54.152;19.432;2023-04-23T05:40:02;4.30;;;3.90;;
66741;SDS011;53654;54.152;19.432;2023-04-23T05:42:36;4.10;;;3.70;;
66741;SDS011;53654;54.152;19.432;2023-04-23T05:45:04;5.50;;;4.00;;
66741;SDS011;53654;54.152;19.432;2023-04-23T05:47:35;4.70;;;4.10;;
66741;SDS011;53654;54.152;19.432;2023-04-23T05:50:04;4.10;;;3.80;;
66741;SDS011;53654;54.152;19.432;2023-04-23T05:52:33;4.90;;;4.30;;
66741;SDS011;53654;54.152;19.432;2023-04-23T05:55:04;4.70;;;4.10;;
66741;SDS011;53654;54.152;19.432;2023-04-23T05:57:35;5.60;;;4.40;;
66741;SDS011;53654;54.152;19.432;2023-04-23T06:00:04;4.80;;;4.30;;
66741;SDS011;53654;54.152;19.432;2023-04-23T06:02:41;5.20;;;4.50;;
66741;SDS011;53654;54.152;19.432;2023-04-23T06:05:10;4.80;;;4.30;;
66741;SDS011;53654;54.152;19.432;2023-04-23T06:07:39;4.60;;;4.20;;
66741;SDS011;53654;54.152;19.432;2023-04-23T06:10:08;5.10;;;4.50;;
66741;SDS011;53654;54.152;19.432;2023-04-23T06:12:37;5.40;;;4.20;;
66741;SDS011;53654;54.152;19.432;2023-04-23T06:15:07;5.50;;;5.00;;
66741;SDS011;53654;54.152;19.432;2023-04-23T06:17:36;5.20;;;4.60;;
66741;SDS011;53654;54.152;19.432;2023-04-23T06:20:04;5.10;;;4.60;;
66741;SDS011;53654;54.152;19.432;2023-04-23T06:22:35;5.20;;;4.60;;
66741;SDS011;53654;54.152;19.432;2023-04-23T06:25:04;5.60;;;4.50;;
66741;SDS011;53654;54.152;19.432;2023-04-23T06:27:32;5.00;;;4.60;;
66741;SDS011;53654;54.152;19.432;2023-04-23T06:30:05;4.90;;;4.40;;
66741;SDS011;53654;54.152;19.432;2023-04-23T06:32:36;5.30;;;4.60;;
66741;SDS011;53654;54.152;19.432;2023-04-23T06:35:05;5.40;;;4.90;;
66741;SDS011;53654;54.152;19.432;2023-04-23T06:37:34;5.70;;;5.10;;
66741;SDS011;53654;54.152;19.432;2023-04-23T06:40:03;5.10;;;4.70;;
66741;SDS011;53654;54.152;19.432;2023-04-23T06:42:33;5.40;;;4.90;;
66741;SDS011;53654;54.152;19.432;2023-04-23T06:45:21;5.40;;;4.60;;
66741;SDS011;53654;54.152;19.432;2023-04-23T06:47:49;5.40;;;4.90;;
66741;SDS011;53654;54.152;19.432;2023-04-23T06:50:17;5.50;;;4.90;;
66741;SDS011;53654;54.152;19.432;2023-04-23T06:52:45;5.50;;;4.90;;
66741;SDS011;53654;54.152;19.432;2023-04-23T06:55:13;5.40;;;4.90;;
66741;SDS011;53654;54.152;19.432;2023-04-23T06:57:41;5.40;;;4.90;;
66741;SDS011;53654;54.152;19.432;2023-04-23T07:00:09;6.10;;;5.50;;
66741;SDS011;53654;54.152;19.432;2023-04-23T07:02:40;6.00;;;5.40;;
66741;SDS011;53654;54.152;19.432;2023-04-23T07:05:09;6.10;;;5.50;;
66741;SDS011;53654;54.152;19.432;2023-04-23T07:07:37;6.60;;;5.90;;
66741;SDS011;53654;54.152;19.432;2023-04-23T07:10:08;6.20;;;5.60;;
66741;SDS011;53654;54.152;19.432;2023-04-23T07:12:38;6.20;;;5.60;;
66741;SDS011;53654;54.152;19.432;2023-04-23T07:15:06;6.60;;;5.80;;
66741;SDS011;53654;54.152;19.432;2023-04-23T07:17:35;5.50;;;5.00;;
66741;SDS011;53654;54.152;19.432;2023-04-23T07:20:04;6.00;;;5.30;;
66741;SDS011;53654;54.152;19.432;2023-04-23T07:22:33;6.30;;;5.70;;
66741;SDS011;53654;54.152;19.432;2023-04-23T07:25:01;7.20;;;6.00;;
66741;SDS011;53654;54.152;19.432;2023-04-23T07:27:31;5.80;;;5.30;;
66741;SDS011;53654;54.152;19.432;2023-04-23T07:29:59;6.30;;;5.70;;
66741;SDS011;53654;54.152;19.432;2023-04-23T07:32:28;6.40;;;5.60;;
66741;SDS011;53654;54.152;19.432;2023-04-23T07:34:56;6.40;;;5.80;;
66741;SDS011;53654;54.152;19.432;2023-04-23T07:37:25;6.70;;;5.90;;
66741;SDS011;53654;54.152;19.432;2023-04-23T07:39:53;6.70;;;5.90;;
66741;SDS011;53654;54.152;19.432;2023-04-23T07:42:22;7.80;;;6.00;;
66741;SDS011;53654;54.152;19.432;2023-04-23T07:44:50;6.40;;;5.80;;
66741;SDS011;53654;54.152;19.432;2023-04-23T07:47:18;7.20;;;6.10;;
66741;SDS011;53654;54.152;19.432;2023-04-23T07:49:46;6.70;;;6.10;;
66741;SDS011;53654;54.152;19.432;2023-04-23T07:52:15;7.00;;;6.00;;
66741;SDS011;53654;54.152;19.432;2023-04-23T07:54:43;6.20;;;5.70;;
66741;SDS011;53654;54.152;19.432;2023-04-23T07:57:12;6.70;;;6.10;;
66741;SDS011;53654;54.152;19.432;2023-04-23T07:59:40;6.60;;;6.00;;
66741;SDS011;53654;54.152;19.432;2023-04-23T08:02:10;6.70;;;5.70;;
66741;SDS011;53654;54.152;19.432;2023-04-23T08:04:38;7.50;;;5.90;;
66741;SDS011;53654;54.152;19.432;2023-04-23T08:07:06;6.40;;;5.80;;
66741;SDS011;53654;54.152;19.432;2023-04-23T08:09:34;6.40;;;5.80;;
66741;SDS011;53654;54.152;19.432;2023-04-23T08:12:02;6.50;;;5.80;;
66741;SDS011;53654;54.152;19.432;2023-04-23T08:14:30;6.50;;;5.90;;
66741;SDS011;53654;54.152;19.432;2023-04-23T08:16:58;6.00;;;5.50;;
66741;SDS011;53654;54.152;19.432;2023-04-23T08:19:26;6.60;;;5.90;;
66741;SDS011;53654;54.152;19.432;2023-04-23T08:21:58;6.30;;;5.70;;
66741;SDS011;53654;54.152;19.432;2023-04-23T08:24:26;6.20;;;5.60;;
66741;SDS011;53654;54.152;19.432;2023-04-23T08:26:55;6.10;;;5.50;;
66741;SDS011;53654;54.152;19.432;2023-04-23T08:29:23;6.60;;;5.90;;
66741;SDS011;53654;54.152;19.432;2023-04-23T08:31:51;6.20;;;5.60;;
66741;SDS011;53654;54.152;19.432;2023-04-23T08:34:19;6.00;;;5.40;;
66741;SDS011;53654;54.152;19.432;2023-04-23T08:36:47;6.40;;;5.50;;
66741;SDS011;53654;54.152;19.432;2023-04-23T08:39:16;5.80;;;5.30;;
66741;SDS011;53654;54.152;19.432;2023-04-23T08:41:44;6.20;;;5.60;;
66741;SDS011;53654;54.152;19.432;2023-04-23T08:44:21;6.80;;;5.80;;
66741;SDS011;53654;54.152;19.432;2023-04-23T08:46:52;6.10;;;5.50;;
66741;SDS011;53654;54.152;19.432;2023-04-23T08:49:20;8.00;;;6.00;;
66741;SDS011;53654;54.152;19.432;2023-04-23T08:51:49;5.90;;;5.30;;
66741;SDS011;53654;54.152;19.432;2023-04-23T08:54:26;6.60;;;5.80;;
66741;SDS011;53654;54.152;19.432;2023-04-23T08:56:55;6.30;;;5.70;;
66741;SDS011;53654;54.152;19.432;2023-04-23T08:59:25;7.40;;;5.90;;
66741;SDS011;53654;54.152;19.432;2023-04-23T09:01:53;6.40;;;5.30;;
66741;SDS011;53654;54.152;19.432;2023-04-23T09:04:22;8.30;;;5.60;;
66741;SDS011;53654;54.152;19.432;2023-04-23T09:06:52;9.80;;;6.00;;
66741;SDS011;53654;54.152;19.432;2023-04-23T09:09:22;7.20;;;6.00;;
66741;SDS011;53654;54.152;19.432;2023-04-23T09:11:51;6.40;;;5.80;;
66741;SDS011;53654;54.152;19.432;2023-04-23T09:14:22;5.70;;;5.30;;
66741;SDS011;53654;54.152;19.432;2023-04-23T09:16:53;6.30;;;5.70;;
66741;SDS011;53654;54.152;19.432;2023-04-23T09:19:21;6.50;;;5.50;;
66741;SDS011;53654;54.152;19.432;2023-04-23T09:21:54;6.10;;;5.20;;
66741;SDS011;53654;54.152;19.432;2023-04-23T09:24:23;6.80;;;5.60;;
66741;SDS011;53654;54.152;19.432;2023-04-23T09:26:51;8.30;;;5.60;;
66741;SDS011;53654;54.152;19.432;2023-04-23T09:29:22;8.00;;;5.70;;
66741;SDS011;53654;54.152;19.432;2023-04-23T09:31:54;6.80;;;5.70;;
66741;SDS011;53654;54.152;19.432;2023-04-23T09:34:24;6.90;;;5.90;;
66741;SDS011;53654;54.152;19.432;2023-04-23T09:36:52;5.60;;;5.10;;
66741;SDS011;53654;54.152;19.432;2023-04-23T09:39:21;6.00;;;5.40;;
66741;SDS011;53654;54.152;19.432;2023-04-23T09:41:50;6.10;;;5.50;;
66741;SDS011;53654;54.152;19.432;2023-04-23T09:44:20;6.60;;;5.90;;
66741;SDS011;53654;54.152;19.432;2023-04-23T09:46:49;5.90;;;5.40;;
66741;SDS011;53654;54.152;19.432;2023-04-23T09:49:17;6.80;;;5.90;;
66741;SDS011;53654;54.152;19.432;2023-04-23T09:51:46;6.00;;;5.40;;
66741;SDS011;53654;54.152;19.432;2023-04-23T09:54:21;6.40;;;5.50;;
66741;SDS011;53654;54.152;19.432;2023-04-23T09:56:50;6.10;;;5.30;;
66741;SDS011;53654;54.152;19.432;2023-04-23T09:59:30;6.30;;;5.40;;
66741;SDS011;53654;54.152;19.432;2023-04-23T10:02:15;6.00;;;5.30;;
66741;SDS011;53654;54.152;19.432;2023-04-23T10:04:43;5.80;;;5.30;;
66741;SDS011;53654;54.152;19.432;2023-04-23T10:07:11;6.90;;;5.30;;
66741;SDS011;53654;54.152;19.432;2023-04-23T10:09:46;6.50;;;5.00;;
66741;SDS011;53654;54.152;19.432;2023-04-23T10:12:14;6.30;;;5.10;;
66741;SDS011;53654;54.152;19.432;2023-04-23T10:15:04;5.80;;;5.20;;
66741;SDS011;53654;54.152;19.432;2023-04-23T10:17:34;5.60;;;5.10;;
66741;SDS011;53654;54.152;19.432;2023-04-23T10:20:04;5.80;;;5.30;;
66741;SDS011;53654;54.152;19.432;2023-04-23T10:22:34;9.00;;;4.90;;
66741;SDS011;53654;54.152;19.432;2023-04-23T10:25:04;6.40;;;4.90;;
66741;SDS011;53654;54.152;19.432;2023-04-23T10:27:40;5.70;;;5.00;;
66741;SDS011;53654;54.152;19.432;2023-04-23T10:30:20;6.70;;;5.00;;
66741;SDS011;53654;54.152;19.432;2023-04-23T10:32:49;7.10;;;5.10;;
66741;SDS011;53654;54.152;19.432;2023-04-23T10:35:18;5.90;;;4.80;;
66741;SDS011;53654;54.152;19.432;2023-04-23T10:37:46;5.90;;;5.00;;
66741;SDS011;53654;54.152;19.432;2023-04-23T10:40:18;5.40;;;4.90;;
66741;SDS011;53654;54.152;19.432;2023-04-23T10:42:50;5.70;;;5.20;;
66741;SDS011;53654;54.152;19.432;2023-04-23T10:45:19;5.90;;;4.70;;
66741;SDS011;53654;54.152;19.432;2023-04-23T10:47:52;6.10;;;5.60;;
66741;SDS011;53654;54.152;19.432;2023-04-23T10:50:23;6.10;;;5.50;;
66741;SDS011;53654;54.152;19.432;2023-04-23T10:52:54;5.80;;;5.20;;
66741;SDS011;53654;54.152;19.432;2023-04-23T10:55:26;5.60;;;5.10;;
66741;SDS011;53654;54.152;19.432;2023-04-23T10:57:56;8.30;;;5.70;;
66741;SDS011;53654;54.152;19.432;2023-04-23T11:00:47;5.50;;;4.80;;
66741;SDS011;53654;54.152;19.432;2023-04-23T11:06:12;5.80;;;5.30;;
66741;SDS011;53654;54.152;19.432;2023-04-23T11:08:50;5.30;;;4.80;;
66741;SDS011;53654;54.152;19.432;2023-04-23T11:11:24;4.80;;;4.40;;
66741;SDS011;53654;54.152;19.432;2023-04-23T11:14:10;4.90;;;4.50;;
66741;SDS011;53654;54.152;19.432;2023-04-23T11:16:42;5.30;;;4.50;;
66741;SDS011;53654;54.152;19.432;2023-04-23T11:19:10;7.40;;;5.00;;
66741;SDS011;53654;54.152;19.432;2023-04-23T11:21:55;8.40;;;4.50;;
66741;SDS011;53654;54.152;19.432;2023-04-23T11:24:26;5.40;;;4.90;;
66741;SDS011;53654;54.152;19.432;2023-04-23T11:26:55;5.80;;;4.80;;
66741;SDS011;53654;54.152;19.432;2023-04-23T11:29:25;6.20;;;4.70;;
66741;SDS011;53654;54.152;19.432;2023-04-23T11:31:54;5.30;;;4.40;;
66741;SDS011;53654;54.152;19.432;2023-04-23T11:34:25;6.50;;;4.60;;
66741;SDS011;53654;54.152;19.432;2023-04-23T11:36:55;5.10;;;4.60;;
66741;SDS011;53654;54.152;19.432;2023-04-23T11:39:25;5.80;;;4.80;;
66741;SDS011;53654;54.152;19.432;2023-04-23T11:41:54;7.20;;;4.70;;
66741;SDS011;53654;54.152;19.432;2023-04-23T11:44:22;6.30;;;4.90;;
66741;SDS011;53654;54.152;19.432;2023-04-23T11:46:50;5.70;;;4.90;;
66741;SDS011;53654;54.152;19.432;2023-04-23T11:49:18;5.60;;;4.90;;
66741;SDS011;53654;54.152;19.432;2023-04-23T11:51:48;6.20;;;4.60;;
66741;SDS011;53654;54.152;19.432;2023-04-23T11:54:16;4.80;;;4.40;;
66741;SDS011;53654;54.152;19.432;2023-04-23T11:56:44;4.80;;;4.40;;
66741;SDS011;53654;54.152;19.432;2023-04-23T11:59:12;6.60;;;4.60;;
66741;SDS011;53654;54.152;19.432;2023-04-23T12:01:41;5.00;;;4.50;;
66741;SDS011;53654;54.152;19.432;2023-04-23T12:04:11;5.00;;;4.50;;
66741;SDS011;53654;54.152;19.432;2023-04-23T12:06:44;6.60;;;4.70;;
66741;SDS011;53654;54.152;19.432;2023-04-23T12:09:14;5.00;;;4.60;;
66741;SDS011;53654;54.152;19.432;2023-04-23T12:11:43;5.00;;;4.50;;
66741;SDS011;53654;54.152;19.432;2023-04-23T12:14:12;5.10;;;4.70;;
66741;SDS011;53654;54.152;19.432;2023-04-23T12:16:42;5.50;;;4.70;;
66741;SDS011;53654;54.152;19.432;2023-04-23T12:19:15;5.70;;;5.10;;
66741;SDS011;53654;54.152;19.432;2023-04-23T12:21:49;5.40;;;4.80;;
66741;SDS011;53654;54.152;19.432;2023-04-23T12:24:25;5.20;;;4.80;;
66741;SDS011;53654;54.152;19.432;2023-04-23T12:26:56;5.10;;;4.70;;
66741;SDS011;53654;54.152;19.432;2023-04-23T12:29:30;4.60;;;4.10;;
66741;SDS011;53654;54.152;19.432;2023-04-23T12:31:59;4.40;;;4.00;;
66741;SDS011;53654;54.152;19.432;2023-04-23T12:34:27;6.10;;;4.00;;
66741;SDS011;53654;54.152;19.432;2023-04-23T12:36:55;5.50;;;3.90;;
66741;SDS011;53654;54.152;19.432;2023-04-23T12:39:25;4.70;;;4.10;;
66741;SDS011;53654;54.152;19.432;2023-04-23T12:42:03;4.60;;;3.80;;
66741;SDS011;53654;54.152;19.432;2023-04-23T12:44:33;7.00;;;4.20;;
66741;SDS011;53654;54.152;19.432;2023-04-23T12:47:03;4.70;;;4.90;;
66741;SDS011;53654;54.152;19.432;2023-04-23T12:49:38;4.50;;;4.00;;
66741;SDS011;53654;54.152;19.432;2023-04-23T12:52:08;5.10;;;3.70;;
66741;SDS011;53654;54.152;19.432;2023-04-23T12:54:39;5.60;;;4.00;;
66741;SDS011;53654;54.152;19.432;2023-04-23T12:57:09;5.00;;;3.70;;
66741;SDS011;53654;54.152;19.432;2023-04-23T12:59:38;5.30;;;4.00;;
66741;SDS011;53654;54.152;19.432;2023-04-23T13:02:08;4.40;;;3.90;;
66741;SDS011;53654;54.152;19.432;2023-04-23T13:04:36;5.80;;;3.60;;
66741;SDS011;53654;54.152;19.432;2023-04-23T13:07:04;5.30;;;3.90;;
66741;SDS011;53654;54.152;19.432;2023-04-23T13:09:32;4.90;;;3.80;;
66741;SDS011;53654;54.152;19.432;2023-04-23T13:12:02;4.80;;;3.90;;
66741;SDS011;53654;54.152;19.432;2023-04-23T13:14:30;4.40;;;4.00;;
66741;SDS011;53654;54.152;19.432;2023-04-23T13:16:59;6.80;;;4.00;;
66741;SDS011;53654;54.152;19.432;2023-04-23T13:19:27;6.00;;;4.20;;
66741;SDS011;53654;54.152;19.432;2023-04-23T13:21:55;4.70;;;4.00;;
66741;SDS011;53654;54.152;19.432;2023-04-23T13:24:23;4.60;;;4.10;;
66741;SDS011;53654;54.152;19.432;2023-04-23T13:26:51;5.40;;;3.90;;
66741;SDS011;53654;54.152;19.432;2023-04-23T13:29:19;6.50;;;3.60;;
66741;SDS011;53654;54.152;19.432;2023-04-23T13:31:47;9.90;;;4.20;;
66741;SDS011;53654;54.152;19.432;2023-04-23T13:34:15;4.60;;;4.20;;
66741;SDS011;53654;54.152;19.432;2023-04-23T13:36:43;5.60;;;4.20;;
66741;SDS011;53654;54.152;19.432;2023-04-23T13:39:11;4.70;;;4.10;;
66741;SDS011;53654;54.152;19.432;2023-04-23T13:41:40;6.70;;;4.10;;
66741;SDS011;53654;54.152;19.432;2023-04-23T13:44:09;6.10;;;4.20;;
66741;SDS011;53654;54.152;19.432;2023-04-23T13:46:37;5.90;;;4.00;;
66741;SDS011;53654;54.152;19.432;2023-04-23T13:49:06;4.90;;;4.10;;
66741;SDS011;53654;54.152;19.432;2023-04-23T13:51:34;5.90;;;4.20;;
66741;SDS011;53654;54.152;19.432;2023-04-23T13:54:03;4.70;;;4.20;;
66741;SDS011;53654;54.152;19.432;2023-04-23T13:56:31;4.70;;;4.00;;
66741;SDS011;53654;54.152;19.432;2023-04-23T13:58:59;4.70;;;4.00;;
66741;SDS011;53654;54.152;19.432;2023-04-23T14:01:33;4.40;;;4.00;;
66741;SDS011;53654;54.152;19.432;2023-04-23T14:04:01;5.70;;;3.90;;
66741;SDS011;53654;54.152;19.432;2023-04-23T14:06:31;4.40;;;4.00;;
66741;SDS011;53654;54.152;19.432;2023-04-23T14:08:59;5.30;;;4.10;;
66741;SDS011;53654;54.152;19.432;2023-04-23T14:11:27;11.00;;;5.10;;
66741;SDS011;53654;54.152;19.432;2023-04-23T14:13:55;8.10;;;4.10;;
66741;SDS011;53654;54.152;19.432;2023-04-23T14:16:23;4.80;;;4.00;;
66741;SDS011;53654;54.152;19.432;2023-04-23T14:18:52;5.00;;;3.90;;
66741;SDS011;53654;54.152;19.432;2023-04-23T14:21:20;7.10;;;4.10;;
66741;SDS011;53654;54.152;19.432;2023-04-23T14:26:27;4.50;;;5.30;;
66741;SDS011;53654;54.152;19.432;2023-04-23T14:29:35;4.10;;;3.80;;
66741;SDS011;53654;54.152;19.432;2023-04-23T14:32:08;5.20;;;3.90;;
66741;SDS011;53654;54.152;19.432;2023-04-23T14:34:36;4.90;;;3.90;;
66741;SDS011;53654;54.152;19.432;2023-04-23T14:37:04;4.10;;;3.70;;
66741;SDS011;53654;54.152;19.432;2023-04-23T14:39:32;4.90;;;3.90;;
66741;SDS011;53654;54.152;19.432;2023-04-23T14:42:01;4.90;;;4.00;;
66741;SDS011;53654;54.152;19.432;2023-04-23T14:44:29;3.80;;;3.50;;
66741;SDS011;53654;54.152;19.432;2023-04-23T14:46:57;5.50;;;4.20;;
66741;SDS011;53654;54.152;19.432;2023-04-23T14:49:25;4.40;;;4.00;;
66741;SDS011;53654;54.152;19.432;2023-04-23T14:51:53;5.00;;;4.10;;
66741;SDS011;53654;54.152;19.432;2023-04-23T14:54:22;6.10;;;4.20;;
66741;SDS011;53654;54.152;19.432;2023-04-23T14:56:50;5.70;;;3.80;;